Time;durP1;ratioP1;P1;durP2;ratioP2;P2;SDS_P1;SDS_P2;PMS_P1;PMS_P2;Temp;Humidity;BMP_temperature;BMP_pressure;BME280_temperature;BME280_humidity;BME280_pressure;Samples;Min_cycle;Max_cycle;Signal;HPM_P1;HPM_P2
2022/09/11 00:02:20;;;;;;;6.30;4.07;;;;;;;17.68;92.76;99926.61;125716;1099;102740;-79
2022/09/11 00:04:51;;;;;;;8.53;4.05;;;;;;;17.67;93.12;99935.48;125665;1099;104073;-79
2022/09/11 00:07:22;;;;;;;7.77;4.47;;;;;;;17.66;92.95;99927.52;125625;1099;104166;-79
2022/09/11 00:09:53;;;;;;;6.57;4.00;;;;;;;17.65;92.82;99926.61;125712;1099;104162;-79
2022/09/11 00:12:25;;;;;;;7.47;4.63;;;;;;;17.65;93.04;99931.05;125680;1099;104227;-79
2022/09/11 00:14:56;;;;;;;6.70;4.40;;;;;;;17.65;93.20;99928.39;125673;1099;104197;-79
2022/09/11 00:17:27;;;;;;;8.77;4.40;;;;;;;17.64;93.21;99930.17;125703;1099;104175;-79
2022/09/11 00:19:58;;;;;;;7.97;4.20;;;;;;;17.63;93.84;99923.09;125689;1099;104159;-80
2022/09/11 00:22:30;;;;;;;9.93;4.40;;;;;;;17.57;93.44;99923.98;125686;1099;104223;-79
2022/09/11 00:25:01;;;;;;;8.23;4.80;;;;;;;17.56;93.38;99926.63;125639;1099;104338;-79
2022/09/11 00:27:32;;;;;;;9.17;4.80;;;;;;;17.56;93.09;99932.84;125666;1099;104169;-78
2022/09/11 00:30:04;;;;;;;6.77;4.40;;;;;;;17.56;93.65;99930.19;125727;1099;104631;-79
2022/09/11 00:32:35;;;;;;;6.20;4.20;;;;;;;17.56;93.32;99937.24;125656;1099;104169;-78
2022/09/11 00:35:08;;;;;;;9.23;4.53;;;;;;;17.55;93.58;99925.77;124871;1098;103267;-78
2022/09/11 00:37:39;;;;;;;9.00;4.70;;;;;;;17.56;93.71;99942.55;125799;1098;102117;-79
2022/09/11 00:40:14;;;;;;;9.20;4.47;;;;;;;17.55;93.70;99933.72;124711;1099;102295;-79
2022/09/11 00:42:45;;;;;;;7.70;4.30;;;;;;;17.52;93.78;99931.07;125674;1099;104239;-78
2022/09/11 00:45:23;;;;;;;8.03;4.40;;;;;;;17.50;93.54;99923.99;124805;1099;102254;-78
2022/09/11 00:47:58;;;;;;;6.80;4.03;;;;;;;17.48;93.84;99918.69;125204;1099;104188;-78
2022/09/11 00:50:32;;;;;;;6.53;4.50;;;;;;;17.45;93.95;99913.39;125681;1098;104254;-78
2022/09/11 00:53:08;;;;;;;7.67;4.60;;;;;;;17.48;93.75;99910.73;125661;1099;104297;-78
2022/09/11 00:55:46;;;;;;;9.83;4.67;;;;;;;17.50;93.63;99914.29;124761;1099;102851;-78
2022/09/11 00:58:22;;;;;;;7.23;4.30;;;;;;;17.49;93.63;99920.47;125117;1098;104150;-78
2022/09/11 01:00:55;;;;;;;5.90;4.20;;;;;;;17.47;93.51;99911.64;124814;1099;102626;-78
2022/09/11 01:03:27;;;;;;;9.37;4.60;;;;;;;17.46;93.76;99917.82;125684;1099;102161;-78
2022/09/11 01:05:59;;;;;;;6.90;4.50;;;;;;;17.40;94.07;99899.27;125615;1099;104188;-78
2022/09/11 01:08:30;;;;;;;7.07;4.53;;;;;;;17.47;93.79;99910.73;125657;1099;104267;-78
2022/09/11 01:11:13;;;;;;;6.40;4.37;;;;;;;17.48;93.76;99917.81;125702;1099;104185;-78
2022/09/11 01:13:55;;;;;;;6.43;4.17;;;;;;;17.51;94.28;99921.34;124750;1098;104497;-78
2022/09/11 01:16:37;;;;;;;8.67;4.80;;;;;;;17.57;94.31;99925.76;125727;1099;104214;-79
2022/09/11 01:19:24;;;;;;;7.23;4.40;;;;;;;17.61;94.48;99920.45;125594;1099;104223;-79
2022/09/11 01:22:17;;;;;;;6.47;4.80;;;;;;;17.67;94.53;99913.34;125623;1099;104264;-79
2022/09/11 01:25:04;;;;;;;7.70;4.90;;;;;;;17.69;93.93;99903.63;124775;1099;102854;-79
2022/09/11 01:27:45;;;;;;;7.87;4.47;;;;;;;17.64;94.05;99900.09;125672;1099;102906;-79
2022/09/11 01:30:18;;;;;;;8.53;4.60;;;;;;;17.59;94.35;99906.31;125664;1098;118912;-79
2022/09/11 01:33:10;;;;;;;7.30;4.12;;;;;;;17.55;94.30;99903.67;125728;1099;104157;-79
2022/09/11 01:35:51;;;;;;;7.40;4.90;;;;;;;17.49;94.61;99898.38;125735;1097;104258;-79
2022/09/11 01:38:32;;;;;;;9.37;4.90;;;;;;;17.46;94.55;99904.56;125687;1099;104163;-79
2022/09/11 01:41:09;;;;;;;8.30;4.60;;;;;;;17.42;94.63;99908.09;125833;1099;102258;-79
2022/09/11 01:43:45;;;;;;;8.30;4.47;;;;;;;17.38;94.77;99903.70;125812;1099;103002;-79
2022/09/11 01:46:21;;;;;;;9.70;4.87;;;;;;;17.37;94.81;99896.62;125700;1099;104163;-79
2022/09/11 01:48:59;;;;;;;10.67;4.47;;;;;;;17.32;95.05;99893.09;125653;1099;104579;-80
2022/09/11 01:51:36;;;;;;;9.93;5.07;;;;;;;17.31;95.17;99899.28;125653;1098;104239;-79
2022/09/11 01:54:11;;;;;;;12.70;4.87;;;;;;;17.28;95.12;99893.98;125688;1099;104373;-79
2022/09/11 01:56:46;;;;;;;7.10;4.67;;;;;;;17.27;95.09;99894.88;125692;1097;104244;-79
2022/09/11 01:59:26;;;;;;;10.97;4.80;;;;;;;17.25;95.41;99901.06;125570;1099;104242;-80
2022/09/11 02:02:04;;;;;;;8.00;4.73;;;;;;;17.22;95.45;99903.72;125722;1099;104163;-80
2022/09/11 02:04:41;;;;;;;8.00;4.63;;;;;;;17.21;95.69;99898.41;125718;1098;104238;-80
2022/09/11 02:07:17;;;;;;;7.10;5.10;;;;;;;17.19;95.30;99895.77;125649;1099;104166;-80
2022/09/11 02:09:55;;;;;;;8.37;4.70;;;;;;;17.18;95.55;99899.29;125641;1099;104169;-79
2022/09/11 02:12:31;;;;;;;7.50;4.60;;;;;;;17.17;95.54;99886.94;125653;1099;104714;-79
2022/09/11 02:15:02;;;;;;;10.93;5.17;;;;;;;17.16;95.40;99887.81;125637;1099;104162;-79
2022/09/11 02:17:42;;;;;;;9.97;5.23;;;;;;;17.16;95.81;99897.55;125668;1099;104245;-79
2022/09/11 02:20:14;;;;;;;9.87;5.13;;;;;;;17.13;95.65;99890.47;125796;1099;102746;-79
2022/09/11 02:22:48;;;;;;;9.40;5.20;;;;;;;17.15;96.12;99893.98;125730;1099;102289;-79
2022/09/11 02:25:20;;;;;;;10.30;5.07;;;;;;;17.16;95.95;99889.59;125664;1099;104166;-79
2022/09/11 02:27:53;;;;;;;7.90;5.20;;;;;;;17.16;96.01;99895.77;125696;1099;104836;-79
2022/09/11 02:30:25;;;;;;;10.03;5.37;;;;;;;17.16;95.47;99903.72;125684;1099;104198;-78
2022/09/11 02:33:00;;;;;;;8.70;5.57;;;;;;;17.15;95.90;99898.42;125696;1098;104239;-79
2022/09/11 02:35:44;;;;;;;10.23;5.40;;;;;;;17.17;95.87;99897.55;125685;1099;102445;-79
2022/09/11 02:38:22;;;;;;;11.65;5.55;;;;;;;17.16;95.79;99897.55;125712;1098;102093;-80
2022/09/11 02:41:01;;;;;;;11.50;5.77;;;;;;;17.15;96.29;99893.98;125640;1099;101828;-80
2022/09/11 02:43:47;;;;;;;9.67;5.57;;;;;;;17.15;96.42;99887.81;125736;1098;102736;-79
2022/09/11 02:46:38;;;;;;;12.03;5.90;;;;;;;17.14;96.53;99892.24;125703;1099;102205;-80
2022/09/11 02:49:23;;;;;;;12.57;5.90;;;;;;;17.11;96.17;99900.20;125716;1099;104224;-79
2022/09/11 02:52:02;;;;;;;13.43;5.50;;;;;;;17.10;96.00;99898.42;125649;1099;108124;-79
2022/09/11 02:54:43;;;;;;;12.20;5.60;;;;;;;17.08;96.41;99897.55;125800;1099;104269;-80
2022/09/11 02:57:21;;;;;;;10.90;5.70;;;;;;;17.07;96.54;99895.77;125677;1099;102353;-80
2022/09/11 02:59:59;;;;;;;11.40;5.27;;;;;;;17.06;96.68;99901.95;125710;1099;104261;-80
2022/09/11 03:02:33;;;;;;;9.20;5.80;;;;;;;17.06;96.40;99902.85;125638;1097;118905;-80
2022/09/11 03:05:05;;;;;;;9.33;5.10;;;;;;;17.04;96.43;99899.30;125579;1099;104200;-80
2022/09/11 03:07:36;;;;;;;9.23;4.90;;;;;;;17.03;96.81;99899.30;125671;1099;104188;-79
2022/09/11 03:10:10;;;;;;;12.85;5.45;;;;;;;17.02;96.54;99890.47;125672;1099;102794;-80
2022/09/11 03:12:42;;;;;;;14.10;5.40;;;;;;;17.03;96.54;99889.59;125682;1099;104194;-80
2022/09/11 03:15:16;;;;;;;9.93;5.47;;;;;;;17.03;96.43;99907.25;125692;1099;104162;-80
2022/09/11 03:17:47;;;;;;;10.30;5.40;;;;;;;17.03;96.93;99915.20;125719;1099;101835;-80
2022/09/11 03:20:21;;;;;;;10.60;5.83;;;;;;;17.02;96.42;99924.05;125710;1099;104239;-81
2022/09/11 03:22:53;;;;;;;12.30;5.67;;;;;;;17.01;96.47;99922.27;125686;1099;104197;-80
2022/09/11 03:25:27;;;;;;;10.10;5.30;;;;;;;16.99;96.71;99929.36;125707;1098;104201;-80
2022/09/11 03:27:59;;;;;;;10.67;5.60;;;;;;;16.98;96.44;99931.09;125687;1099;104213;-80
2022/09/11 03:30:32;;;;;;;15.13;5.63;;;;;;;16.98;96.77;99930.23;125615;1099;102146;-80
2022/09/11 03:33:04;;;;;;;10.43;5.57;;;;;;;16.99;97.12;99932.00;125699;1099;104201;-80
2022/09/11 03:35:35;;;;;;;13.70;5.90;;;;;;;16.98;96.40;99931.09;125686;1099;104217;-79
2022/09/11 03:38:06;;;;;;;12.60;6.37;;;;;;;16.98;96.88;99919.63;125707;1099;104272;-79
2022/09/11 03:40:38;;;;;;;11.80;6.13;;;;;;;16.99;97.13;99929.36;125201;1099;104229;-81
2022/09/11 03:43:10;;;;;;;11.13;6.10;;;;;;;17.00;96.76;99933.75;125620;1099;107899;-80
2022/09/11 03:45:43;;;;;;;13.48;6.30;;;;;;;16.99;96.84;99926.70;125656;1099;104175;-80
2022/09/11 03:48:14;;;;;;;10.20;5.93;;;;;;;16.99;97.00;99930.23;125689;1099;104197;-80
2022/09/11 03:50:46;;;;;;;10.53;5.97;;;;;;;17.01;96.95;99938.18;125689;1099;104205;-80
2022/09/11 03:53:19;;;;;;;14.07;6.70;;;;;;;17.00;97.24;99936.40;125674;1099;104255;-80
2022/09/11 03:55:50;;;;;;;13.00;7.10;;;;;;;16.99;96.75;99939.95;125680;1099;104175;-80
2022/09/11 03:58:21;;;;;;;14.20;7.53;;;;;;;16.98;97.21;99944.34;125664;1099;104561;-80
2022/09/11 04:00:53;;;;;;;13.70;8.37;;;;;;;16.99;96.68;99945.25;125690;1099;103197;-80
2022/09/11 04:03:24;;;;;;;13.70;8.43;;;;;;;16.99;97.20;99945.25;125666;1099;102848;-80
2022/09/11 04:06:00;;;;;;;14.63;8.53;;;;;;;16.97;96.88;99947.00;125716;1099;104173;-80
2022/09/11 04:08:33;;;;;;;14.37;8.83;;;;;;;16.98;97.40;99935.53;125665;1099;104200;-80
2022/09/11 04:11:07;;;;;;;16.47;9.03;;;;;;;17.00;97.35;99939.05;125649;1099;104230;-80
2022/09/11 04:13:41;;;;;;;19.63;10.23;;;;;;;17.01;97.46;99940.83;125672;1099;104268;-80
2022/09/11 04:16:16;;;;;;;17.93;10.57;;;;;;;17.04;97.91;99938.18;125662;1099;102265;-80
2022/09/11 04:18:52;;;;;;;21.57;11.67;;;;;;;17.07;98.15;99951.44;125696;1099;104188;-80
2022/09/11 04:21:23;;;;;;;20.70;12.90;;;;;;;17.10;97.77;99953.22;125634;1099;104286;-80
2022/09/11 04:23:58;;;;;;;23.37;15.53;;;;;;;17.14;98.21;99954.96;125633;1099;104182;-80
2022/09/11 04:26:32;;;;;;;21.90;15.70;;;;;;;17.11;97.65;99958.52;125714;1098;104625;-80
2022/09/11 04:29:23;;;;;;;26.67;17.43;;;;;;;17.11;98.27;99960.27;125755;1098;104199;-80
2022/09/11 04:31:56;;;;;;;24.47;17.37;;;;;;;17.07;97.73;99948.78;125471;1099;103031;-81
2022/09/11 04:34:30;;;;;;;24.90;19.30;;;;;;;17.04;97.18;99949.66;125694;1099;107100;-79
2022/09/11 04:37:02;;;;;;;24.80;18.90;;;;;;;17.04;97.27;99949.66;125780;1099;104239;-80
2022/09/11 04:39:34;;;;;;;25.53;19.63;;;;;;;17.05;97.76;99954.08;125663;1099;104181;-80
2022/09/11 04:42:19;;;;;;;25.37;19.83;;;;;;;17.02;96.87;99953.20;125732;1099;104172;-79
2022/09/11 04:45:10;;;;;;;27.95;19.05;;;;;;;17.02;97.35;99954.08;125641;1099;118889;-80
2022/09/11 04:47:44;;;;;;;25.67;19.27;;;;;;;16.99;97.01;99945.25;125652;1099;104240;-80
2022/09/11 04:50:19;;;;;;;27.03;20.43;;;;;;;16.95;97.28;99947.00;125646;1099;104625;-80
2022/09/11 04:53:10;;;;;;;28.83;20.90;;;;;;;16.95;97.19;99947.00;125666;1099;104165;-79
2022/09/11 04:55:41;;;;;;;27.30;21.27;;;;;;;16.94;97.17;99939.05;125630;1099;104335;-80
2022/09/11 04:58:13;;;;;;;25.60;19.90;;;;;;;16.91;97.55;99942.59;125637;1099;104226;-80
2022/09/11 05:00:44;;;;;;;26.73;19.63;;;;;;;16.87;97.14;99954.94;125662;1098;104374;-80
2022/09/11 05:03:16;;;;;;;26.43;20.77;;;;;;;16.86;97.41;99954.94;125675;1099;104332;-80
2022/09/11 05:05:48;;;;;;;27.17;20.97;;;;;;;16.81;96.90;99954.92;125642;1099;104101;-80
2022/09/11 05:08:19;;;;;;;26.40;20.03;;;;;;;16.81;96.71;99954.92;125699;1099;104185;-80
2022/09/11 05:10:51;;;;;;;24.73;18.40;;;;;;;16.84;96.95;99960.23;125656;1099;104163;-80
2022/09/11 05:13:23;;;;;;;24.10;18.83;;;;;;;16.87;96.87;99949.64;125710;1099;104124;-79
2022/09/11 05:16:00;;;;;;;27.77;19.33;;;;;;;16.95;96.98;99957.59;124855;1099;104179;-79
2022/09/11 05:18:33;;;;;;;23.80;17.25;;;;;;;16.99;97.06;99961.16;124925;1099;104316;-80
2022/09/11 05:21:07;;;;;;;24.30;15.63;;;;;;;16.95;96.31;99956.72;125658;1098;104201;-80
2022/09/11 05:23:39;;;;;;;20.90;14.17;;;;;;;16.90;96.41;99948.77;125678;1099;102993;-79
2022/09/11 05:26:15;;;;;;;19.47;13.37;;;;;;;16.86;96.54;99947.89;125662;1099;104187;-80
2022/09/11 05:28:47;;;;;;;20.90;14.27;;;;;;;16.87;96.46;99941.69;125692;1098;104175;-79
2022/09/11 05:31:19;;;;;;;22.37;13.23;;;;;;;16.87;96.02;99944.34;125695;1099;104217;-80
2022/09/11 05:33:51;;;;;;;19.83;12.70;;;;;;;16.91;95.89;99946.99;125666;1099;104162;-80
2022/09/11 05:36:23;;;;;;;18.47;11.87;;;;;;;16.89;95.67;99945.25;125704;1099;101959;-80
2022/09/11 05:38:54;;;;;;;16.73;11.17;;;;;;;16.93;96.09;99953.20;125685;1099;104393;-80
2022/09/11 05:41:26;;;;;;;19.43;10.93;;;;;;;16.90;95.57;99951.42;125718;1099;102781;-80
2022/09/11 05:43:57;;;;;;;16.90;10.60;;;;;;;16.88;95.83;99954.06;125628;1099;104152;-80
2022/09/11 05:46:29;;;;;;;16.67;10.57;;;;;;;16.88;95.81;99943.47;125721;1099;104162;-79
2022/09/11 05:49:02;;;;;;;13.58;9.28;;;;;;;16.87;95.58;99943.47;125717;1099;102022;-79
2022/09/11 05:51:36;;;;;;;14.07;9.00;;;;;;;16.84;94.96;99946.08;125648;1098;104181;-79
2022/09/11 05:54:07;;;;;;;11.60;8.40;;;;;;;16.80;95.48;99944.33;125658;1099;104215;-80
2022/09/11 05:56:40;;;;;;;12.73;8.23;;;;;;;16.79;95.16;99943.42;125592;1099;102464;-80
2022/09/11 05:59:14;;;;;;;13.23;7.83;;;;;;;16.78;94.53;99946.06;125719;1099;102730;-79
2022/09/11 06:01:47;;;;;;;10.27;7.83;;;;;;;16.78;94.94;99943.42;125718;1099;101890;-78
2022/09/11 06:04:26;;;;;;;12.00;7.20;;;;;;;16.78;95.05;99946.06;125589;1099;104444;-79
2022/09/11 06:06:57;;;;;;;10.00;7.23;;;;;;;16.77;95.13;99942.55;125699;1099;104192;-79
2022/09/11 06:09:28;;;;;;;8.80;6.90;;;;;;;16.79;94.60;99939.90;125702;1099;102888;-79
2022/09/11 06:12:05;;;;;;;9.73;6.20;;;;;;;16.81;94.40;99949.63;125730;1098;104141;-80
2022/09/11 06:14:36;;;;;;;9.03;5.87;;;;;;;16.83;94.92;99950.50;125681;1099;104297;-79
2022/09/11 06:17:11;;;;;;;7.47;5.87;;;;;;;16.87;94.64;99954.94;125674;1099;104076;-78
2022/09/11 06:19:43;;;;;;;8.40;5.70;;;;;;;16.93;94.16;99955.84;125762;1098;102094;-80
2022/09/11 06:22:15;;;;;;;8.87;5.60;;;;;;;16.97;93.88;99958.51;125661;1099;102810;-80
2022/09/11 06:24:48;;;;;;;7.17;5.03;;;;;;;16.99;93.77;99955.86;125737;1099;104177;-80
2022/09/11 06:27:20;;;;;;;8.03;4.90;;;;;;;17.00;93.84;99957.60;125659;1099;102996;-80
2022/09/11 06:29:54;;;;;;;6.27;4.87;;;;;;;17.02;93.25;99955.86;125120;1099;104181;-81
2022/09/11 06:32:25;;;;;;;9.97;4.90;;;;;;;17.01;93.56;99949.66;125797;1099;104210;-79
2022/09/11 06:34:58;;;;;;;9.17;4.33;;;;;;;17.04;93.44;99956.73;125686;1099;102136;-80
2022/09/11 06:37:29;;;;;;;5.97;4.10;;;;;;;17.04;93.25;99948.78;125742;1098;104248;-79
2022/09/11 06:40:00;;;;;;;6.30;4.60;;;;;;;17.10;93.50;99946.13;125768;1098;104594;-79
2022/09/11 06:42:32;;;;;;;5.60;3.90;;;;;;;17.18;93.22;99952.31;125662;1099;104089;-79
2022/09/11 06:45:06;;;;;;;4.50;3.67;;;;;;;17.26;92.45;99952.31;125705;1099;104313;-80
2022/09/11 06:47:40;;;;;;;4.87;3.83;;;;;;;17.34;91.84;99954.95;125651;1099;110725;-79
2022/09/11 06:50:13;;;;;;;5.40;3.70;;;;;;;17.45;90.92;99960.26;125722;1099;102305;-79
2022/09/11 06:53:02;;;;;;;4.60;3.35;;;;;;;17.63;91.28;99959.36;125656;1099;102784;-80
2022/09/11 06:55:34;;;;;;;4.63;3.40;;;;;;;17.78;91.17;99969.95;125797;1099;102696;-81
2022/09/11 06:58:10;;;;;;;4.77;3.43;;;;;;;17.91;90.27;99966.39;125756;1099;102855;-80
2022/09/11 07:00:41;;;;;;;5.90;3.60;;;;;;;18.10;89.11;99975.17;125740;1099;101811;-80
2022/09/11 07:03:14;;;;;;;8.90;3.73;;;;;;;18.24;89.48;99983.09;125712;1099;104168;-81
2022/09/11 07:05:48;;;;;;;4.53;3.40;;;;;;;18.42;90.47;99973.30;125645;1099;104262;-80
2022/09/11 07:08:22;;;;;;;6.20;3.90;;;;;;;18.53;90.05;99979.43;125628;1099;104166;-79
2022/09/11 07:10:55;;;;;;;4.53;3.70;;;;;;;18.58;89.42;99979.41;125714;1099;102778;-79
2022/09/11 07:13:28;;;;;;;4.40;3.20;;;;;;;18.68;89.57;99974.03;125704;1099;104195;-79
2022/09/11 07:16:04;;;;;;;4.97;3.47;;;;;;;18.76;89.58;99978.41;125648;1099;104269;-80
2022/09/11 07:18:38;;;;;;;5.50;3.60;;;;;;;18.87;89.15;99973.95;125800;1097;102235;-79
2022/09/11 07:21:15;;;;;;;4.27;3.10;;;;;;;18.99;88.64;99975.63;125630;1099;104185;-79
2022/09/11 07:23:49;;;;;;;3.87;3.47;;;;;;;19.06;88.45;99984.44;125748;1098;104599;-80
2022/09/11 07:26:21;;;;;;;3.43;3.13;;;;;;;19.09;88.18;99990.63;125713;1099;102730;-79
2022/09/11 07:28:54;;;;;;;;;;;;;;;19.14;86.07;99980.83;125681;1099;104214;-79
2022/09/11 07:31:29;;;;;;;5.13;3.50;;;;;;;19.25;87.11;99983.41;125741;1099;104198;-79
2022/09/11 07:34:01;;;;;;;5.30;3.10;;;;;;;19.34;87.14;99987.79;125641;1099;104236;-80
2022/09/11 07:36:34;;;;;;;4.37;3.13;;;;;;;19.46;86.86;99994.76;125148;1099;102127;-80
2022/09/11 07:39:06;;;;;;;4.53;3.13;;;;;;;19.53;85.49;99996.48;125741;1099;104159;-80
2022/09/11 07:41:41;;;;;;;7.90;3.10;;;;;;;19.55;84.25;99992.89;125725;1099;104241;-79
2022/09/11 07:44:19;;;;;;;4.53;3.17;;;;;;;19.52;84.27;99986.72;125792;1099;102167;-80
2022/09/11 07:46:51;;;;;;;3.35;3.02;;;;;;;19.52;83.00;99984.06;125602;1098;104239;-80
2022/09/11 07:49:26;;;;;;;3.47;3.17;;;;;;;19.62;84.30;99987.51;125705;1098;102155;-79
2022/09/11 07:51:58;;;;;;;6.57;3.27;;;;;;;19.73;84.10;99986.52;125604;1099;104191;-79
2022/09/11 07:54:40;;;;;;;4.93;2.90;;;;;;;19.84;82.77;99983.78;124821;1099;102361;-80
2022/09/11 07:57:11;;;;;;;3.83;3.10;;;;;;;19.93;83.37;99980.16;125728;1099;104223;-79
2022/09/11 07:59:43;;;;;;;3.37;3.00;;;;;;;19.99;80.94;99993.40;125700;1099;104322;-80
2022/09/11 08:02:16;;;;;;;3.43;2.87;;;;;;;20.02;80.74;99993.34;124880;1099;104606;-80
2022/09/11 08:04:48;;;;;;;5.90;3.00;;;;;;;20.11;80.54;99997.69;125654;1099;101910;-80
2022/09/11 08:07:22;;;;;;;3.20;2.90;;;;;;;20.08;79.51;99989.73;125641;1099;102113;-80
2022/09/11 08:09:53;;;;;;;4.00;2.87;;;;;;;20.06;77.97;99999.53;125669;1098;104149;-80
2022/09/11 08:12:24;;;;;;;3.57;3.13;;;;;;;19.96;78.07;99993.44;125676;1099;104476;-80
2022/09/11 08:14:55;;;;;;;4.47;3.10;;;;;;;19.95;79.64;99996.98;125772;1098;104163;-80
2022/09/11 08:17:26;;;;;;;5.20;2.90;;;;;;;19.97;78.84;99999.63;125646;1099;102316;-80
2022/09/11 08:19:58;;;;;;;5.37;2.90;;;;;;;19.92;78.53;99987.23;125699;1099;101803;-80
2022/09/11 08:22:30;;;;;;;3.90;3.07;;;;;;;19.95;77.97;99991.66;125773;1099;104268;-80
2022/09/11 08:25:01;;;;;;;4.00;3.00;;;;;;;19.98;77.61;99980.10;125595;1099;102794;-79
2022/09/11 08:27:32;;;;;;;4.40;2.60;;;;;;;20.01;76.97;99983.60;125670;1099;104162;-79
2022/09/11 08:30:03;;;;;;;4.50;2.90;;;;;;;20.13;76.53;99981.69;125673;1099;104200;-79
2022/09/11 08:32:34;;;;;;;5.37;2.80;;;;;;;20.27;76.92;99977.06;125756;1099;102753;-79
2022/09/11 08:35:09;;;;;;;4.93;2.40;;;;;;;20.42;76.02;99970.67;124834;1099;101989;-80
2022/09/11 08:37:42;;;;;;;3.83;2.73;;;;;;;20.58;77.30;99969.55;125677;1099;104197;-80
2022/09/11 08:40:15;;;;;;;2.83;2.63;;;;;;;20.71;76.65;99970.31;125698;1099;104171;-80
2022/09/11 08:42:48;;;;;;;4.03;2.90;;;;;;;20.82;75.82;99968.36;125667;1099;102756;-79
2022/09/11 08:45:26;;;;;;;4.20;3.15;;;;;;;20.94;75.35;99963.73;125732;1099;102084;-80
2022/09/11 08:48:00;;;;;;;4.60;3.10;;;;;;;21.05;75.10;99960.91;125647;1099;102327;-80
2022/09/11 08:50:39;;;;;;;4.93;3.13;;;;;;;21.12;75.33;99952.78;125641;1099;104195;-79
2022/09/11 08:53:16;;;;;;;3.97;2.67;;;;;;;21.19;75.66;99951.78;125741;1099;102191;-80
2022/09/11 08:55:52;;;;;;;3.63;3.07;;;;;;;21.27;74.37;99940.08;125747;1099;104303;-80
2022/09/11 08:58:33;;;;;;;6.27;3.00;;;;;;;21.32;74.81;99948.91;125606;1099;104328;-79
2022/09/11 09:01:16;;;;;;;3.30;2.93;;;;;;;21.43;74.79;99943.39;125668;1099;104208;-79
2022/09/11 09:04:12;;;;;;;5.93;2.80;;;;;;;21.43;73.25;99941.59;125633;1099;104201;-81
2022/09/11 09:06:59;;;;;;;4.23;2.73;;;;;;;21.46;73.09;99941.54;125706;1099;104293;-79
2022/09/11 09:09:42;;;;;;;5.40;2.77;;;;;;;21.55;73.25;99940.53;125695;1099;101796;-79
2022/09/11 09:12:20;;;;;;;2.87;2.53;;;;;;;21.60;71.27;99949.33;125129;1099;104313;-80
2022/09/11 09:15:17;;;;;;;3.40;2.73;;;;;;;21.65;71.93;99938.56;125658;1099;102129;-79
2022/09/11 09:17:54;;;;;;;5.23;2.60;;;;;;;21.70;71.55;99942.89;125623;1098;102265;-80
2022/09/11 09:20:33;;;;;;;5.23;2.50;;;;;;;21.78;71.25;99933.87;125660;1099;104223;-79
2022/09/11 09:23:13;;;;;;;7.43;3.47;;;;;;;21.84;68.22;99939.95;125692;1099;104168;-79
2022/09/11 09:25:45;;;;;;;2.80;2.60;;;;;;;21.88;69.59;99935.45;125676;1099;104165;-80
2022/09/11 09:28:23;;;;;;;2.50;2.30;;;;;;;21.89;69.48;99930.09;125600;1099;104207;-80
2022/09/11 09:30:57;;;;;;;2.10;2.00;;;;;;;21.90;69.14;99931.83;125645;1099;108108;-79
2022/09/11 09:33:34;;;;;;;3.43;2.50;;;;;;;21.94;67.94;99937.11;125639;1099;104192;-79
2022/09/11 09:36:16;;;;;;;2.53;2.33;;;;;;;22.03;68.41;99932.48;125665;1099;104166;-79
2022/09/11 09:38:48;;;;;;;3.80;2.37;;;;;;;22.07;66.57;99933.28;125649;1099;104290;-80
2022/09/11 09:41:49;;;;;;;2.30;2.10;;;;;;;22.11;67.83;99934.09;125680;1099;104166;-79
2022/09/11 09:44:34;;;;;;;3.50;2.47;;;;;;;22.17;66.87;99932.16;125481;1099;104265;-78
2022/09/11 09:47:10;;;;;;;2.63;2.40;;;;;;;22.21;65.75;99935.67;125755;1099;104223;-80
2022/09/11 09:49:43;;;;;;;3.77;2.30;;;;;;;22.25;65.77;99926.66;125661;1099;104252;-80
2022/09/11 09:52:19;;;;;;;3.67;2.40;;;;;;;22.34;67.06;99928.30;125739;1098;104259;-80
2022/09/11 09:54:58;;;;;;;2.53;2.33;;;;;;;22.45;65.90;99926.26;125742;1099;103104;-79
2022/09/11 09:57:34;;;;;;;2.60;2.40;;;;;;;22.58;65.89;99924.21;125706;1099;102165;-79
2022/09/11 10:00:14;;;;;;;5.63;2.57;;;;;;;22.75;65.40;99923.79;125675;1099;104175;-79
2022/09/11 10:02:48;;;;;;;2.55;2.35;;;;;;;22.85;65.21;99929.82;125684;1099;104253;-80
2022/09/11 10:05:19;;;;;;;;;;;;;;;22.98;65.52;99918.80;125832;1099;102190;-79
2022/09/11 10:07:53;;;;;;;3.40;2.60;;;;;;;23.11;65.82;99924.73;125808;1098;104698;-80
2022/09/11 10:10:28;;;;;;;2.60;2.40;;;;;;;23.20;65.47;99938.80;125664;1099;104198;-80
2022/09/11 10:13:02;;;;;;;3.10;2.27;;;;;;;23.27;64.16;99946.63;125721;1098;104210;-80
2022/09/11 10:15:41;;;;;;;2.70;2.50;;;;;;;23.28;63.07;99953.76;125726;1099;104166;-80
2022/09/11 10:18:33;;;;;;;3.43;2.20;;;;;;;23.18;63.03;99936.16;125749;1098;102192;-80
2022/09/11 10:21:20;;;;;;;3.20;2.40;;;;;;;23.29;63.71;99934.08;125616;1099;102246;-79
2022/09/11 10:23:54;;;;;;;2.60;2.40;;;;;;;23.28;61.82;99929.66;125685;1099;102168;-80
2022/09/11 10:26:32;;;;;;;3.20;2.30;;;;;;;23.27;61.43;99929.70;125692;1098;103724;-79
2022/09/11 10:29:13;;;;;;;2.30;2.10;;;;;;;23.35;61.50;99927.70;125643;1099;104769;-79
2022/09/11 10:31:51;;;;;;;2.57;2.37;;;;;;;23.39;60.78;99928.48;125738;1099;104191;-80
2022/09/11 10:34:25;;;;;;;4.00;2.40;;;;;;;23.41;61.49;99924.86;125681;1099;102772;-79
2022/09/11 10:36:55;;;;;;;;;;;;;;;23.45;59.07;99929.23;125753;1099;103209;-80
2022/09/11 10:39:29;;;;;;;3.57;2.20;;;;;;;23.42;60.18;99931.09;125733;1099;104229;-79
2022/09/11 10:42:10;;;;;;;3.00;2.40;;;;;;;23.49;61.47;99921.98;125681;1099;102054;-79
2022/09/11 10:44:44;;;;;;;4.00;2.50;;;;;;;23.56;59.64;99926.27;125456;1099;104162;-79
2022/09/11 10:47:18;;;;;;;4.10;2.60;;;;;;;23.59;60.44;99920.83;125744;1099;104190;-80
2022/09/11 10:49:49;;;;;;;4.63;2.80;;;;;;;23.67;60.42;99923.30;125617;1099;104201;-79
2022/09/11 10:52:22;;;;;;;3.50;2.50;;;;;;;23.63;59.52;99916.26;125703;1099;104089;-79
2022/09/11 10:55:04;;;;;;;2.83;2.50;;;;;;;23.67;59.75;99918.81;125713;1099;104240;-79
2022/09/11 10:57:43;;;;;;;3.43;2.50;;;;;;;23.73;59.58;99916.87;125710;1099;102871;-80
2022/09/11 11:00:25;;;;;;;3.70;2.30;;;;;;;23.74;58.68;99913.28;125689;1099;104176;-80
2022/09/11 11:02:59;;;;;;;3.30;2.30;;;;;;;23.82;58.67;99914.80;125698;1099;107865;-79
2022/09/11 11:05:36;;;;;;;3.33;2.37;;;;;;;23.95;57.34;99907.36;125668;1099;104194;-80
2022/09/11 11:08:31;;;;;;;5.43;2.40;;;;;;;23.92;57.78;99894.05;125718;1099;104246;-80
2022/09/11 11:11:15;;;;;;;7.60;2.40;;;;;;;23.89;58.10;99890.55;125697;1099;104243;-80
2022/09/11 11:14:06;;;;;;;2.90;2.30;;;;;;;24.00;58.22;99894.69;125735;1099;103052;-80
2022/09/11 11:16:51;;;;;;;3.90;2.67;;;;;;;24.10;58.13;99895.29;125652;1099;101989;-79
2022/09/11 11:19:49;;;;;;;2.97;2.60;;;;;;;24.18;57.96;99895.06;125705;1098;104192;-80
2022/09/11 11:22:33;;;;;;;3.13;2.50;;;;;;;24.24;57.56;99878.80;125753;1098;104201;-79
2022/09/11 11:25:16;;;;;;;3.37;2.57;;;;;;;24.30;57.06;99878.61;125673;1099;104169;-79
2022/09/11 11:28:22;;;;;;;3.87;2.10;;;;;;;24.29;56.56;99874.16;125713;1099;104241;-80
2022/09/11 11:31:03;;;;;;;2.40;2.20;;;;;;;24.19;56.06;99864.66;125313;1099;104271;-80
2022/09/11 11:34:00;;;;;;;2.50;2.30;;;;;;;24.23;55.78;99871.66;125672;1099;104066;-79
2022/09/11 11:36:39;;;;;;;2.30;2.10;;;;;;;24.36;56.54;99864.14;125695;1098;104162;-79
2022/09/11 11:39:22;;;;;;;2.30;2.10;;;;;;;24.54;56.41;99870.71;125731;1099;102287;-80
2022/09/11 11:42:06;;;;;;;2.80;2.37;;;;;;;24.64;55.83;99874.03;125757;1099;104252;-79
2022/09/11 11:44:41;;;;;;;3.13;2.40;;;;;;;24.79;55.31;99865.45;125680;1099;104235;-79
2022/09/11 11:47:16;;;;;;;3.10;2.30;;;;;;;24.86;55.24;99858.97;125641;1099;104169;-79
2022/09/11 11:49:59;;;;;;;2.77;2.57;;;;;;;24.90;54.94;99857.95;125716;1099;104201;-79
2022/09/11 11:52:41;;;;;;;2.13;2.03;;;;;;;24.96;54.99;99854.16;125788;1099;102069;-79
2022/09/11 11:55:21;;;;;;;2.47;1.90;;;;;;;24.98;53.79;99846.05;125746;1099;104185;-80